Hartford, CT

7:54 AM EDT on July 07, 2015 (GMT -0400)
KCTEASTH16 | | Change Station
CLOSE
Current Station
Personal Weather Station
Location: East Hartford, CT
Elevation: 56 ft
Nearby Weather Stations

Elev 56 ft 41.79 °N, 72.63 °W | Updated 45 seconds ago

Overcast
Overcast
71.2 °F
Feels Like 72 °F
N
1.1
Wind Variable Wind from ESE

Today
High -- | Low -- °F
--% Chance of Precip.
Yesterday
High -- | Low -- °F
Precip. -- in
5:22 AM 8:27 PM
Waning Gibbous, 65% visible
Pressure 30.07 in
Visibility 5.0 miles
Clouds Overcast 800 ft
Heat Index 72 °F
Dew Point 65 °F
Humidity 80%
Rainfall 0.00 in
Snow Depth Not available.
UV 0 out of 12
Pollen 3.00 out of 12
Air Quality Not available.
Flu Activity Not available.
METAR KHFD 071053Z 15006KT 5SM BR OVC008 22/20 A3007 RMK AO2 SLP183 T02170200

More Conditions Fewer Conditions

Pressure 30.07 in
Visibility 5.0 miles
Clouds Overcast 800 ft
Heat Index 72 °F
Dew Point 65 °F
Humidity 80%
Rainfall 0.00 in
Snow Depth Not available.
UV 0 out of 12
Pollen 3.00 out of 12
Air Quality Not available.
Flu Activity Not available.
METAR KHFD 071053Z 15006KT 5SM BR OVC008 22/20 A3007 RMK AO2 SLP183 T02170200

More Conditions Fewer Conditions

10-Day Weather Forecast

×

Almanac

Astronomy

Jul. 07, 2015 Rise Set
Actual Time
Civil Twilight
Nautical Twilight
Astronomical Twilight
Moon
Length of Visible Light
Length of Day
Tomorrow will be .
, % of the Moon is Illuminated

Today's Extremes

State Highs State Lows

Community

WunderPhotos

Upload Photos

1,835,770 photos uploaded!

WunderBlogs® & News

Nearby

Air Quality

  Air Quality AQ Index Pollutant
Not available.

Snow Depth

Station Depth Elevation

Earthquake Activity

City Distance Mag. Time & Date
Minimum magnitude displayed is 2.5.

Coastal Water Temperatures

Place Temperature

Stations

Nearby Weather Stations

Station Location Temp. Windchill Dew Point Humidity Wind Precip. Elev Updated Type